Time;durP1;ratioP1;P1;durP2;ratioP2;P2;SDS_P1;SDS_P2;PMS_P1;PMS_P2;Temp;Humidity;BMP_temperature;BMP_pressure;BME280_temperature;BME280_humidity;BME280_pressure;Samples;Min_cycle;Max_cycle;Signal;HPM_P1;HPM_P2
2023/09/03 00:00:00;;;;;;;4.45;4.05;;;;;;;28.46;59.95;100437.16;4931064;28;66923;-37
2023/09/03 00:02:38;;;;;;;3.40;3.08;;;;;;;28.25;59.66;100405.06;4914479;28;70223;-37
2023/09/03 00:05:08;;;;;;;3.55;3.25;;;;;;;28.49;60.04;100436.72;4921446;28;66110;-37
2023/09/03 00:07:38;;;;;;;4.10;3.80;;;;;;;28.64;59.28;100460.75;4916281;28;70398;-36
2023/09/03 00:10:08;;;;;;;4.28;3.03;;;;;;;28.60;60.80;100458.69;4915207;28;66121;-36
2023/09/03 00:12:38;;;;;;;6.13;3.78;;;;;;;28.67;60.20;100476.50;4929774;28;70683;-37
2023/09/03 00:15:09;;;;;;;3.13;2.92;;;;;;;28.64;60.84;100471.56;4910614;28;65268;-36
2023/09/03 00:17:39;;;;;;;6.72;3.75;;;;;;;28.77;59.87;100481.44;4913922;28;69864;-37
2023/09/03 00:20:10;;;;;;;5.35;4.30;;;;;;;28.49;65.07;100442.13;4910782;28;65642;-38
2023/09/03 00:22:41;;;;;;;10.90;5.43;;;;;;;28.88;68.31;100490.72;4918038;28;70349;-37
2023/09/03 00:25:11;;;;;;;7.97;4.80;;;;;;;28.89;66.43;100479.72;4915786;28;65899;-39
2023/09/03 00:27:41;;;;;;;7.72;5.38;;;;;;;29.01;70.58;100503.34;4925355;28;70742;-38
2023/09/03 00:30:12;;;;;;;6.20;5.57;;;;;;;29.04;69.08;100494.84;4914195;28;66805;-37
2023/09/03 00:32:42;;;;;;;6.22;5.60;;;;;;;29.10;71.68;100502.06;4918665;28;70026;-38
2023/09/03 00:35:12;;;;;;;11.85;6.70;;;;;;;29.16;70.71;100499.31;4912278;28;66898;-37
2023/09/03 00:37:42;;;;;;;11.38;6.50;;;;;;;29.18;72.06;100504.50;4910295;28;70130;-38
2023/09/03 00:40:12;;;;;;;10.98;5.60;;;;;;;29.18;72.17;100491.00;4916374;28;67173;-37
2023/09/03 00:42:42;;;;;;;8.23;5.97;;;;;;;29.25;72.13;100499.88;4903649;28;69618;-37
2023/09/03 00:45:12;;;;;;;7.28;6.53;;;;;;;29.25;73.41;100497.16;4914611;28;66982;-37
2023/09/03 00:47:42;;;;;;;6.88;6.28;;;;;;;29.28;73.70;100498.59;4902566;28;69817;-37
2023/09/03 00:50:13;;;;;;;8.27;5.63;;;;;;;29.32;73.40;100506.06;4919709;28;65728;-38
2023/09/03 00:52:43;;;;;;;6.50;5.90;;;;;;;29.37;73.38;100508.13;4918905;28;70402;-37
2023/09/03 00:55:13;;;;;;;8.15;5.53;;;;;;;29.37;74.56;100508.13;4913589;28;66012;-37
2023/09/03 00:57:43;;;;;;;7.55;5.32;;;;;;;29.48;68.72;100515.50;4910668;28;70287;-35
2023/09/03 01:00:13;;;;;;;8.82;4.88;;;;;;;29.52;68.37;100510.50;4924149;28;66836;-37
2023/09/03 01:02:44;;;;;;;5.47;4.80;;;;;;;29.55;67.52;100515.44;4928607;28;69663;-37
2023/09/03 01:05:15;;;;;;;5.43;4.90;;;;;;;29.54;67.04;100513.81;4922411;28;65898;-37
2023/09/03 01:07:45;;;;;;;7.35;5.35;;;;;;;29.61;67.10;100525.38;4913054;28;70086;-37
2023/09/03 01:10:17;;;;;;;7.45;5.35;;;;;;;29.66;67.56;100533.69;4918369;28;66444;-37
2023/09/03 01:13:02;;;;;;;7.53;5.53;;;;;;;29.69;67.01;100521.63;4921526;28;69779;-37
2023/09/03 01:15:47;;;;;;;7.07;5.18;;;;;;;29.36;67.39;100482.97;4889173;28;66615;-39
2023/09/03 01:18:23;;;;;;;7.32;5.40;;;;;;;29.69;67.54;100527.03;4919682;28;70555;-37
2023/09/03 01:20:58;;;;;;;9.13;5.78;;;;;;;29.77;67.19;100532.97;4921573;28;66038;-38
2023/09/03 01:23:53;;;;;;;11.95;6.40;;;;;;;29.65;75.77;100532.03;4900068;28;69944;-37
2023/09/03 01:26:35;;;;;;;8.98;5.53;;;;;;;29.71;74.39;100541.97;4900225;28;65466;-37
2023/09/03 01:29:07;;;;;;;12.75;5.45;;;;;;;29.71;76.90;100531.16;4913498;28;70015;-37
2023/09/03 01:31:38;;;;;;;14.32;5.72;;;;;;;29.70;75.83;100534.06;4898510;28;65736;-38
2023/09/03 01:34:08;;;;;;;7.28;4.78;;;;;;;29.73;77.67;100545.28;4895070;28;71786;-40
2023/09/03 01:36:39;;;;;;;17.67;5.38;;;;;;;29.76;78.68;100544.84;4891424;28;65546;-36
2023/09/03 01:39:09;;;;;;;14.98;6.25;;;;;;;29.80;78.86;100539.81;4903550;28;69888;-36
2023/09/03 01:41:39;;;;;;;9.63;5.70;;;;;;;29.83;78.17;100540.19;4909203;28;66368;-36
2023/09/03 01:44:09;;;;;;;12.38;5.53;;;;;;;29.81;79.27;100542.31;4903231;28;70275;-36
2023/09/03 01:46:50;;;;;;;8.20;5.80;;;;;;;29.84;78.67;100547.28;4901815;28;67427;-36
2023/09/03 01:49:32;;;;;;;12.95;5.88;;;;;;;29.88;78.47;100534.13;4909518;28;69522;-36
2023/09/03 01:52:21;;;;;;;7.32;4.90;;;;;;;29.75;78.96;100532.34;4897283;28;66318;-36
2023/09/03 01:54:53;;;;;;;10.40;5.00;;;;;;;29.83;78.63;100534.78;4907459;28;69189;-36
2023/09/03 01:57:41;;;;;;;5.93;5.32;;;;;;;29.91;78.69;100547.19;4898497;28;64369;-36
2023/09/03 02:00:16;;;;;;;6.30;4.60;;;;;;;29.96;78.09;100554.66;4903950;28;70264;-37
2023/09/03 02:02:48;;;;;;;7.18;5.18;;;;;;;29.94;79.04;100535.13;4896646;29;66542;-37
2023/09/03 02:05:19;;;;;;;11.25;5.30;;;;;;;29.97;79.40;100543.59;4896725;28;70404;-37
2023/09/03 02:07:50;;;;;;;9.77;4.60;;;;;;;30.01;79.24;100544.00;4890833;28;65487;-35
2023/09/03 02:10:20;;;;;;;9.40;4.82;;;;;;;30.03;79.87;100544.59;4903352;29;70735;-35
2023/09/03 02:12:50;;;;;;;11.32;5.05;;;;;;;30.05;79.59;100537.09;4899938;28;65749;-36
2023/09/03 02:15:20;;;;;;;10.25;5.25;;;;;;;30.08;78.90;100536.63;4900647;28;69873;-36
2023/09/03 02:17:50;;;;;;;15.38;5.43;;;;;;;30.10;79.58;100534.56;4879941;29;66775;-35
2023/09/03 02:20:21;;;;;;;7.00;5.03;;;;;;;30.10;80.34;100531.84;4905059;28;70580;-36
2023/09/03 02:22:51;;;;;;;11.40;5.10;;;;;;;30.13;80.27;100527.88;4895062;28;66455;-37
2023/09/03 02:25:21;;;;;;;7.50;4.63;;;;;;;30.11;80.13;100525.38;4903431;28;70195;-35
2023/09/03 02:27:51;;;;;;;13.05;4.60;;;;;;;30.11;79.90;100525.38;4905596;28;66329;-35
2023/09/03 02:30:21;;;;;;;7.78;4.18;;;;;;;30.13;79.53;100523.28;4897153;28;70241;-35
2023/09/03 02:32:51;;;;;;;8.18;4.53;;;;;;;30.06;79.82;100514.38;4902860;28;65598;-35
2023/09/03 02:35:22;;;;;;;5.93;3.70;;;;;;;30.15;79.35;100518.47;4900533;28;70409;-35
2023/09/03 02:37:52;;;;;;;8.98;3.80;;;;;;;30.16;78.90;100512.00;4901794;28;66763;-38
2023/09/03 02:40:23;;;;;;;10.18;4.05;;;;;;;30.15;79.47;100513.06;4884024;28;70557;-37
2023/09/03 02:42:53;;;;;;;9.73;5.32;;;;;;;30.20;79.42;100515.94;4930237;28;66924;-38
2023/09/03 02:45:22;;;;;;;9.63;4.70;;;;;;;30.20;79.58;100513.22;4914089;28;71585;-38
2023/09/03 02:47:53;;;;;;;10.85;4.45;;;;;;;30.22;80.19;100518.44;4927156;28;66267;-36
2023/09/03 02:50:23;;;;;;;5.03;4.38;;;;;;;30.16;80.04;100512.00;4898737;28;72390;-37
2023/09/03 02:52:53;;;;;;;4.97;4.55;;;;;;;30.26;80.33;100522.34;4900148;28;66300;-37
2023/09/03 02:55:23;;;;;;;8.77;4.50;;;;;;;30.24;79.92;100508.22;4922921;28;70413;-36
2023/09/03 02:57:53;;;;;;;12.15;5.25;;;;;;;30.24;80.49;100498.22;4917041;28;66538;-35
2023/09/03 03:00:24;;;;;;;15.55;5.38;;;;;;;30.33;81.02;100506.03;4922960;28;70037;-36
2023/09/03 03:02:54;;;;;;;13.60;5.68;;;;;;;30.08;80.26;100451.97;4906345;28;65511;-36
2023/09/03 03:05:24;;;;;;;19.08;5.38;;;;;;;30.39;80.88;100488.88;4897386;28;70855;-36
2023/09/03 03:07:55;;;;;;;15.15;5.38;;;;;;;30.38;80.44;100481.84;4901302;28;66573;-36
2023/09/03 03:10:26;;;;;;;11.23;5.03;;;;;;;30.42;81.15;100483.03;4923434;28;69360;-36
2023/09/03 03:12:56;;;;;;;21.90;5.63;;;;;;;30.43;80.39;100479.28;4914855;28;66398;-36
2023/09/03 03:15:26;;;;;;;15.98;5.03;;;;;;;30.40;80.55;100474.31;4907295;28;69716;-36
2023/09/03 03:17:56;;;;;;;9.20;4.70;;;;;;;30.44;80.03;100480.91;4911190;28;66334;-37
2023/09/03 03:20:27;;;;;;;15.25;5.35;;;;;;;30.42;80.29;100483.03;4915713;28;69622;-36
2023/09/03 03:22:58;;;;;;;10.93;4.47;;;;;;;30.50;77.38;100469.19;4919971;28;66633;-37
2023/09/03 03:25:28;;;;;;;10.73;4.18;;;;;;;30.48;79.45;100474.03;4918644;28;70424;-37
2023/09/03 03:27:59;;;;;;;7.03;4.47;;;;;;;30.30;79.15;100436.13;4907051;28;66523;-36
2023/09/03 03:30:29;;;;;;;9.00;4.95;;;;;;;30.48;80.20;100460.50;4923266;28;70182;-37
2023/09/03 03:32:59;;;;;;;10.82;5.90;;;;;;;30.52;79.77;100461.66;4914876;28;66674;-38
2023/09/03 03:35:29;;;;;;;11.80;5.13;;;;;;;30.51;80.11;100460.03;4924033;28;69991;-37
2023/09/03 03:37:59;;;;;;;8.95;6.10;;;;;;;30.51;79.87;100460.03;4899288;28;66289;-37
2023/09/03 03:40:30;;;;;;;12.43;6.45;;;;;;;30.53;80.21;100448.97;4922027;28;70452;-39
2023/09/03 03:42:59;;;;;;;11.93;6.55;;;;;;;30.50;80.25;100436.69;4921311;28;65387;-39
2023/09/03 03:45:33;;;;;;;11.73;6.60;;;;;;;30.46;80.68;100422.00;4904737;28;70448;-37
2023/09/03 03:48:04;;;;;;;8.77;7.88;;;;;;;30.54;80.75;100437.09;4924446;28;66517;-35
2023/09/03 03:50:34;;;;;;;9.77;7.75;;;;;;;30.56;80.10;100441.19;4927258;28;70566;-36
2023/09/03 03:53:10;;;;;;;9.15;8.25;;;;;;;30.55;80.61;100420.59;4899279;28;66415;-36
2023/09/03 03:55:40;;;;;;;13.10;8.02;;;;;;;30.59;80.21;100413.69;4900679;28;69467;-37
2023/09/03 03:58:11;;;;;;;12.88;8.88;;;;;;;30.59;80.65;100413.69;4885680;29;64662;-37
2023/09/03 04:00:41;;;;;;;12.95;10.02;;;;;;;30.62;80.38;100412.38;4904173;28;69948;-37
2023/09/03 04:03:11;;;;;;;18.50;10.32;;;;;;;30.64;80.28;100400.28;4910904;28;65082;-36
2023/09/03 04:05:42;;;;;;;14.13;10.70;;;;;;;30.36;80.35;100341.34;4912295;28;69057;-36
2023/09/03 04:08:12;;;;;;;19.05;13.85;;;;;;;30.70;80.07;100387.69;4897244;28;66381;-35
2023/09/03 04:10:42;;;;;;;32.72;20.80;;;;;;;30.67;80.02;100372.78;4920878;28;70085;-36
2023/09/03 04:13:13;;;;;;;;;;;;;;;30.53;80.77;100387.53;4913986;28;65552;-36
2023/09/03 04:15:43;;;;;;;34.17;17.17;;;;;;;30.72;80.06;100385.59;4904144;28;70218;-36
2023/09/03 04:18:13;;;;;;;29.63;17.83;;;;;;;30.75;80.08;100384.31;4925250;28;66619;-36
2023/09/03 04:20:43;;;;;;;26.35;16.73;;;;;;;30.78;79.93;100375.72;4926982;28;70182;-35
2023/09/03 04:23:14;;;;;;;27.17;17.02;;;;;;;30.79;79.66;100369.25;4922928;28;66277;-36
2023/09/03 04:25:45;;;;;;;20.10;15.57;;;;;;;30.86;78.83;100364.59;4923079;28;69500;-38
2023/09/03 04:28:15;;;;;;;25.85;15.52;;;;;;;30.83;79.33;100375.88;4905976;28;66786;-39
2023/09/03 04:30:45;;;;;;;16.05;14.35;;;;;;;30.84;79.68;100366.69;4900335;28;69293;-36
2023/09/03 04:33:16;;;;;;;;;;;;;;;30.64;80.34;100362.38;4905334;28;66334;-35
2023/09/03 04:35:47;;;;;;;15.13;13.10;;;;;;;30.81;79.88;100359.03;4913634;28;70092;-36
2023/09/03 04:38:17;;;;;;;16.15;12.88;;;;;;;30.98;77.02;100346.50;4909494;28;65446;-36
2023/09/03 04:40:48;;;;;;;16.77;12.70;;;;;;;31.06;76.62;100348.81;4911921;28;69773;-37
2023/09/03 04:43:19;;;;;;;16.33;11.93;;;;;;;31.11;76.30;100346.25;4918681;28;66396;-37
2023/09/03 04:45:51;;;;;;;18.27;12.40;;;;;;;30.82;75.98;100293.81;4928191;28;69807;-36
2023/09/03 04:48:22;;;;;;;17.13;12.40;;;;;;;31.09;75.79;100329.41;4906611;28;66432;-36
2023/09/03 04:50:54;;;;;;;15.85;11.13;;;;;;;31.24;75.61;100341.66;4906861;28;68901;-36
2023/09/03 04:53:24;;;;;;;16.00;11.55;;;;;;;31.13;75.46;100322.44;4932656;28;66589;-36
2023/09/03 04:55:54;;;;;;;12.50;11.35;;;;;;;31.11;76.90;100335.41;4925652;28;69637;-35
2023/09/03 04:58:24;;;;;;;17.92;12.93;;;;;;;31.07;77.30;100333.41;4904296;28;66707;-37
2023/09/03 05:00:54;;;;;;;18.70;12.60;;;;;;;31.03;77.73;100329.50;4899983;28;69661;-37
2023/09/03 05:03:25;;;;;;;16.17;12.02;;;;;;;30.95;77.88;100314.44;4888636;28;66371;-37
2023/09/03 05:05:55;;;;;;;18.13;11.63;;;;;;;30.99;78.30;100323.75;4920638;28;68968;-38
2023/09/03 05:08:25;;;;;;;15.98;12.30;;;;;;;30.99;78.34;100318.34;4912800;28;67036;-39
2023/09/03 05:10:56;;;;;;;22.27;11.90;;;;;;;30.96;77.98;100307.97;4887609;28;68898;-34
2023/09/03 05:13:26;;;;;;;20.23;13.00;;;;;;;30.89;76.67;100318.91;4881772;28;66487;-37
2023/09/03 05:15:57;;;;;;;15.15;13.10;;;;;;;30.77;76.24;100311.81;4902489;28;70056;-34
2023/09/03 05:18:27;;;;;;;19.33;13.15;;;;;;;30.65;75.22;100288.25;4928402;28;66150;-35
2023/09/03 05:20:57;;;;;;;18.02;12.13;;;;;;;30.67;74.51;100296.13;4905694;28;70274;-35
2023/09/03 05:23:29;;;;;;;;;;;;;;;30.37;74.70;100279.91;4935545;28;66269;-35
2023/09/03 05:25:59;;;;;;;13.30;11.90;;;;;;;30.54;73.76;100278.22;4910069;28;69111;-35
2023/09/03 05:28:29;;;;;;;18.95;12.15;;;;;;;30.54;73.50;100270.09;4918458;28;66007;-35
2023/09/03 05:31:00;;;;;;;32.40;13.00;;;;;;;30.52;72.65;100266.78;4926752;28;70458;-36
2023/09/03 05:33:32;;;;;;;21.05;13.48;;;;;;;30.46;71.58;100251.50;4894176;28;65641;-34
2023/09/03 05:36:03;;;;;;;24.10;13.88;;;;;;;30.43;71.11;100249.25;4896885;28;70134;-36
2023/09/03 05:38:34;;;;;;;16.40;12.82;;;;;;;30.40;71.29;100241.59;4898952;28;66459;-38
2023/09/03 05:41:04;;;;;;;14.88;12.98;;;;;;;30.42;71.57;100245.72;4910315;28;69750;-36
2023/09/03 05:43:34;;;;;;;14.52;13.13;;;;;;;30.43;70.86;100251.97;4896008;28;65966;-36
2023/09/03 05:46:06;;;;;;;17.50;13.48;;;;;;;30.38;70.06;100259.94;4914410;28;70800;-36
2023/09/03 05:48:37;;;;;;;17.45;12.82;;;;;;;30.38;70.02;100244.53;4905326;28;67942;-35
2023/09/03 05:51:11;;;;;;;15.65;13.15;;;;;;;30.28;69.24;100245.09;4903616;28;69604;-36
2023/09/03 05:53:42;;;;;;;19.83;12.65;;;;;;;30.27;68.53;100251.56;4891133;29;66072;-36
2023/09/03 05:56:13;;;;;;;19.50;13.57;;;;;;;30.23;68.11;100239.56;4910946;28;71083;-35
2023/09/03 05:58:47;;;;;;;14.25;12.77;;;;;;;30.18;66.69;100233.97;4891035;28;65526;-35
2023/09/03 06:01:19;;;;;;;20.92;13.57;;;;;;;30.16;65.59;100235.28;4925523;28;70692;-35
2023/09/03 06:03:49;;;;;;;18.50;14.40;;;;;;;30.11;64.92;100227.84;4899411;28;66127;-36
2023/09/03 06:06:19;;;;;;;21.80;12.98;;;;;;;29.98;64.26;100211.81;4914175;28;69708;-35
2023/09/03 06:08:49;;;;;;;13.82;12.73;;;;;;;30.03;64.06;100220.03;4919742;28;65691;-35
2023/09/03 06:11:20;;;;;;;14.40;13.05;;;;;;;30.01;63.29;100222.19;4920756;28;70071;-35
2023/09/03 06:13:50;;;;;;;25.40;12.93;;;;;;;29.95;62.78;100213.09;4907210;28;66593;-34
2023/09/03 06:16:20;;;;;;;14.50;13.00;;;;;;;29.90;63.47;100207.56;4912405;28;70050;-34
2023/09/03 06:18:50;;;;;;;13.57;12.27;;;;;;;29.86;61.86;100208.25;4924156;28;66737;-35
2023/09/03 06:21:20;;;;;;;19.48;12.77;;;;;;;29.91;61.58;100205.66;4920947;28;69515;-35
2023/09/03 06:23:52;;;;;;;14.33;11.73;;;;;;;29.85;60.73;100196.59;4925177;28;65558;-36
2023/09/03 06:26:22;;;;;;;13.65;12.00;;;;;;;29.84;60.94;100209.31;4920449;28;69414;-35
2023/09/03 06:28:52;;;;;;;12.95;11.52;;;;;;;29.83;60.31;100199.53;4927350;28;66432;-35
2023/09/03 06:31:22;;;;;;;12.07;10.88;;;;;;;29.82;60.39;100205.19;4915423;28;70785;-35
2023/09/03 06:33:53;;;;;;;12.68;11.38;;;;;;;29.84;59.64;100195.78;4918134;28;66045;-35
2023/09/03 06:36:24;;;;;;;11.07;10.07;;;;;;;29.80;59.61;100194.56;4922272;28;69968;-35
2023/09/03 06:38:55;;;;;;;11.30;10.40;;;;;;;29.79;59.46;100206.47;4922919;28;65991;-36
2023/09/03 06:41:25;;;;;;;10.90;10.00;;;;;;;29.81;59.08;100209.75;4915785;28;70214;-35
2023/09/03 06:43:55;;;;;;;11.48;10.27;;;;;;;29.78;58.75;100210.22;4922608;28;65544;-36
2023/09/03 06:46:25;;;;;;;10.50;9.55;;;;;;;29.75;58.21;100202.53;4922502;28;71095;-36
2023/09/03 06:48:56;;;;;;;10.13;9.20;;;;;;;29.73;58.56;100215.50;4909149;28;66983;-36
2023/09/03 06:51:25;;;;;;;11.20;10.27;;;;;;;29.72;58.41;100230.03;4914491;28;69932;-38
2023/09/03 06:53:56;;;;;;;11.07;10.18;;;;;;;29.61;58.58;100222.66;4909039;28;66159;-35
2023/09/03 06:56:27;;;;;;;10.27;9.40;;;;;;;29.69;58.36;100246.72;4902046;28;69501;-36
2023/09/03 06:58:57;;;;;;;10.45;9.52;;;;;;;29.67;58.41;100235.31;4918223;28;65390;-37
2023/09/03 07:01:27;;;;;;;9.68;8.88;;;;;;;29.35;57.81;100194.94;4920483;28;70195;-36
2023/09/03 07:03:57;;;;;;;8.88;8.27;;;;;;;29.62;57.61;100235.16;4925034;28;65768;-38
2023/09/03 07:06:27;;;;;;;9.77;9.10;;;;;;;29.57;57.63;100230.41;4896137;28;69464;-37
2023/09/03 07:08:58;;;;;;;9.73;8.60;;;;;;;29.51;57.17;100219.69;4920504;28;66161;-37
2023/09/03 07:11:28;;;;;;;8.75;7.95;;;;;;;29.52;57.26;100214.06;4915116;28;69954;-36
2023/09/03 07:13:58;;;;;;;8.65;8.10;;;;;;;29.50;56.83;100220.72;4917486;28;67034;-37
2023/09/03 07:16:28;;;;;;;9.07;8.25;;;;;;;29.49;57.12;100209.09;4924071;28;69549;-35
2023/09/03 07:18:58;;;;;;;8.18;7.57;;;;;;;29.44;56.39;100195.44;4913567;28;66323;-35
2023/09/03 07:21:28;;;;;;;8.20;7.60;;;;;;;29.43;56.38;100198.38;4920561;28;69787;-35
2023/09/03 07:23:59;;;;;;;9.63;8.07;;;;;;;29.33;56.23;100177.28;4916078;28;66204;-43
2023/09/03 07:26:29;;;;;;;8.82;8.13;;;;;;;29.35;56.39;100186.81;4924952;28;69156;-36
2023/09/03 07:29:00;;;;;;;8.45;7.75;;;;;;;29.06;55.94;100133.56;4919792;28;65974;-41
2023/09/03 07:31:30;;;;;;;16.23;9.10;;;;;;;29.29;60.75;100160.72;4913667;28;69593;-36
2023/09/03 07:34:01;;;;;;;11.30;9.13;;;;;;;29.43;60.47;100176.78;4915893;28;66223;-36
2023/09/03 07:36:31;;;;;;;9.63;8.77;;;;;;;29.36;59.53;100169.59;4903057;28;69885;-35
2023/09/03 07:39:05;;;;;;;9.20;8.40;;;;;;;29.46;60.13;100170.91;4916452;28;66148;-35
2023/09/03 07:41:37;;;;;;;16.48;8.95;;;;;;;29.17;60.97;100108.53;4909464;28;69465;-36
2023/09/03 07:44:08;;;;;;;10.40;8.70;;;;;;;29.63;62.15;100155.72;4919343;28;66452;-35
2023/09/03 07:46:38;;;;;;;10.67;8.63;;;;;;;29.71;63.24;100158.13;4900607;28;69470;-37
2023/09/03 07:49:08;;;;;;;15.32;8.57;;;;;;;29.77;63.04;100151.78;4922332;28;66608;-35
2023/09/03 07:51:38;;;;;;;9.63;8.73;;;;;;;29.83;64.83;100155.44;4916907;28;69994;-37
2023/09/03 07:54:09;;;;;;;9.57;8.77;;;;;;;29.92;64.97;100158.63;4917428;28;65960;-36
2023/09/03 07:56:39;;;;;;;11.38;9.18;;;;;;;29.97;66.65;100150.66;4916817;28;69016;-37
2023/09/03 07:59:10;;;;;;;16.23;11.63;;;;;;;30.08;70.79;100147.16;4906893;28;65164;-36
2023/09/03 08:01:40;;;;;;;12.63;11.45;;;;;;;30.11;72.12;100145.88;4916812;28;71479;-36
2023/09/03 08:04:10;;;;;;;18.58;10.95;;;;;;;30.18;72.95;100147.41;4913455;28;66423;-35
2023/09/03 08:06:40;;;;;;;19.00;12.30;;;;;;;30.23;74.14;100153.00;4916270;28;70161;-36
2023/09/03 08:09:10;;;;;;;14.18;11.63;;;;;;;30.28;73.57;100166.66;4919295;28;66477;-39
2023/09/03 08:11:41;;;;;;;17.92;11.38;;;;;;;30.35;73.88;100169.22;4924119;28;70332;-37
2023/09/03 08:14:11;;;;;;;15.57;10.90;;;;;;;30.36;74.22;100172.75;4914960;28;65418;-35
2023/09/03 08:16:41;;;;;;;12.98;11.63;;;;;;;30.31;75.39;100164.50;4904913;28;71796;-35
2023/09/03 08:19:12;;;;;;;16.70;11.13;;;;;;;30.43;75.67;100177.00;4915337;28;66369;-36
2023/09/03 08:21:45;;;;;;;14.60;11.82;;;;;;;30.43;75.63;100168.88;4917733;28;70516;-36
2023/09/03 08:24:15;;;;;;;12.93;10.40;;;;;;;30.49;75.42;100175.25;4920001;28;66465;-36
2023/09/03 08:26:47;;;;;;;14.25;11.65;;;;;;;30.51;76.25;100183.97;4917495;28;70230;-36
2023/09/03 08:29:18;;;;;;;12.80;11.45;;;;;;;30.46;76.38;100176.53;4912023;28;66445;-35
2023/09/03 08:31:48;;;;;;;11.80;10.50;;;;;;;30.55;75.68;100187.84;4918738;28;69202;-38
2023/09/03 08:34:18;;;;;;;12.15;10.63;;;;;;;30.47;76.26;100180.06;4930186;28;66245;-37
2023/09/03 08:36:48;;;;;;;12.48;10.68;;;;;;;30.55;76.09;100195.13;4923564;28;69616;-35
2023/09/03 08:39:18;;;;;;;12.70;10.45;;;;;;;30.56;76.23;100192.19;4890377;28;65184;-38
2023/09/03 08:41:48;;;;;;;16.50;9.70;;;;;;;30.59;76.56;100190.88;4915837;28;69336;-38
2023/09/03 08:44:36;;;;;;;10.63;9.63;;;;;;;30.54;77.01;100182.66;4917870;28;66947;-35
2023/09/03 08:47:11;;;;;;;16.15;9.75;;;;;;;30.25;76.82;100115.69;4916666;28;70127;-36
2023/09/03 08:49:43;;;;;;;14.20;10.00;;;;;;;30.62;77.13;100169.59;4918406;28;65947;-35
2023/09/03 08:52:15;;;;;;;11.45;10.27;;;;;;;30.62;77.23;100158.78;4914371;28;69988;-36
2023/09/03 08:54:46;;;;;;;;;;;;;;;30.42;77.99;100163.69;4888996;28;66053;-35
2023/09/03 08:57:16;;;;;;;9.93;8.95;;;;;;;30.64;77.52;100163.94;4909850;28;69850;-35
2023/09/03 08:59:46;;;;;;;11.30;9.75;;;;;;;30.65;77.53;100169.13;4911667;28;66278;-35
2023/09/03 09:02:17;;;;;;;11.55;10.35;;;;;;;30.64;77.61;100162.06;4906566;28;69668;-36
2023/09/03 09:04:48;;;;;;;10.43;9.43;;;;;;;30.68;78.52;100178.66;4913310;28;66346;-36
2023/09/03 09:07:21;;;;;;;11.68;9.52;;;;;;;30.61;78.29;100167.94;4920749;28;69463;-35
2023/09/03 09:09:58;;;;;;;11.73;9.93;;;;;;;30.71;78.99;100179.00;4915548;28;66668;-38
2023/09/03 09:12:52;;;;;;;14.35;10.15;;;;;;;30.73;79.02;100189.63;4899773;28;68250;-37
2023/09/03 09:15:22;;;;;;;11.23;9.90;;;;;;;30.71;79.17;100187.13;4906728;28;66684;-37
2023/09/03 09:17:52;;;;;;;15.70;9.65;;;;;;;30.67;79.21;100183.25;4918499;28;70629;-36
2023/09/03 09:20:22;;;;;;;11.52;10.00;;;;;;;30.71;79.75;100184.44;4918649;28;65702;-37
2023/09/03 09:22:53;;;;;;;10.70;9.55;;;;;;;30.74;79.59;100183.13;4914094;28;70227;-37
2023/09/03 09:25:25;;;;;;;9.05;8.15;;;;;;;30.84;77.19;100187.97;4920783;28;66596;-35
2023/09/03 09:27:57;;;;;;;9.50;8.60;;;;;;;30.92;75.99;100190.31;4925139;28;69201;-37
2023/09/03 09:30:27;;;;;;;9.25;7.20;;;;;;;30.96;75.68;100187.97;4916732;28;66117;-36
2023/09/03 09:33:08;;;;;;;7.75;6.95;;;;;;;30.98;75.75;100183.97;4921127;28;69397;-36
2023/09/03 09:35:38;;;;;;;8.13;7.35;;;;;;;31.06;74.91;100191.72;4925255;28;65729;-35
2023/09/03 09:38:09;;;;;;;8.52;7.72;;;;;;;30.96;77.93;100188.81;4918071;28;70362;-35
2023/09/03 09:40:39;;;;;;;11.40;8.05;;;;;;;30.86;79.13;100185.84;4927202;28;66365;-36
2023/09/03 09:43:10;;;;;;;8.90;8.00;;;;;;;30.79;79.00;100194.09;4919975;28;70307;-35
2023/09/03 09:45:53;;;;;;;11.57;8.02;;;;;;;30.04;79.70;100091.91;4915479;28;66307;-35
2023/09/03 09:48:23;;;;;;;9.45;8.07;;;;;;;30.73;80.34;100203.97;4915454;28;70020;-36
2023/09/03 09:50:53;;;;;;;10.32;7.70;;;;;;;30.87;77.21;100201.03;4919569;28;66183;-37
2023/09/03 09:53:27;;;;;;;7.30;6.70;;;;;;;30.94;76.64;100204.47;4922669;28;70182;-37
2023/09/03 09:55:59;;;;;;;9.15;6.93;;;;;;;30.99;75.78;100204.56;4924037;28;67939;-36
2023/09/03 09:58:40;;;;;;;8.73;6.85;;;;;;;30.55;76.25;100135.59;4928300;28;69880;-36
2023/09/03 10:01:10;;;;;;;9.30;7.55;;;;;;;31.06;75.78;100207.16;4923679;28;66223;-38
2023/09/03 10:03:49;;;;;;;9.45;7.38;;;;;;;31.07;75.65;100203.41;4922039;28;70309;-36
2023/09/03 10:06:21;;;;;;;7.95;6.78;;;;;;;30.69;75.43;100132.38;4924348;28;66623;-37
2023/09/03 10:08:52;;;;;;;;;;;;;;;30.84;76.52;100202.34;4926168;28;70408;-36
2023/09/03 10:11:22;;;;;;;7.40;6.68;;;;;;;31.12;75.06;100195.34;4927193;28;66678;-37
2023/09/03 10:13:52;;;;;;;6.95;6.45;;;;;;;31.15;74.66;100193.00;4933494;28;69953;-36
2023/09/03 10:16:23;;;;;;;8.02;7.25;;;;;;;30.99;74.41;100163.94;4911656;28;65762;-36
2023/09/03 10:18:56;;;;;;;7.97;7.17;;;;;;;30.76;74.29;100128.72;4930517;28;69432;-39
2023/09/03 10:21:28;;;;;;;8.35;7.25;;;;;;;31.21;74.56;100209.38;4933470;28;65380;-37
2023/09/03 10:24:19;;;;;;;8.32;7.50;;;;;;;31.12;74.71;100187.22;4924554;28;70533;-37
2023/09/03 10:26:57;;;;;;;8.52;7.82;;;;;;;30.48;78.17;100119.47;4928571;28;66753;-36
2023/09/03 10:29:31;;;;;;;7.85;7.05;;;;;;;30.92;78.92;100206.56;4923896;28;69564;-36
2023/09/03 10:32:02;;;;;;;9.52;7.40;;;;;;;30.89;79.81;100217.88;4923673;28;66302;-37
2023/09/03 10:34:35;;;;;;;11.75;7.60;;;;;;;30.81;80.33;100216.34;4929996;28;70125;-37
2023/09/03 10:37:10;;;;;;;8.00;7.30;;;;;;;30.48;80.81;100169.00;4929179;28;66908;-37
2023/09/03 10:39:45;;;;;;;8.88;6.75;;;;;;;30.34;81.54;100155.91;4933626;28;70023;-35
2023/09/03 10:42:16;;;;;;;6.93;6.28;;;;;;;30.76;81.24;100231.63;4912698;28;66323;-36
2023/09/03 10:44:58;;;;;;;9.02;6.80;;;;;;;30.71;82.06;100226.91;4927075;28;69716;-36
2023/09/03 10:47:29;;;;;;;9.05;6.72;;;;;;;30.71;82.31;100241.28;4930208;28;65662;-38
2023/09/03 10:49:59;;;;;;;14.13;6.75;;;;;;;30.68;82.47;100238.22;4929189;28;70146;-37
2023/09/03 10:52:31;;;;;;;12.07;7.00;;;;;;;30.72;82.34;100261.88;4933660;28;66322;-36
2023/09/03 10:55:20;;;;;;;;;;;;;;;30.49;83.65;100256.44;4925948;28;70409;-36
2023/09/03 10:58:23;;;;;;;7.80;6.75;;;;;;;30.63;82.56;100274.09;4923749;28;66471;-37
2023/09/03 11:01:19;;;;;;;15.75;7.63;;;;;;;30.64;82.81;100275.75;4922568;28;70896;-36
2023/09/03 11:03:52;;;;;;;13.43;8.10;;;;;;;30.68;82.31;100285.06;4935683;28;66660;-36
2023/09/03 11:06:24;;;;;;;14.50;9.20;;;;;;;30.31;82.61;100226.75;4939139;28;69907;-34
2023/09/03 11:08:59;;;;;;;28.50;9.95;;;;;;;30.65;83.19;100282.00;4926226;28;66351;-36
2023/09/03 11:11:41;;;;;;;17.25;9.15;;;;;;;30.66;83.56;100283.66;4929564;28;70200;-38
2023/09/03 11:14:13;;;;;;;10.73;8.07;;;;;;;30.35;83.35;100234.16;4920731;28;66132;-36
2023/09/03 11:16:43;;;;;;;11.70;9.10;;;;;;;30.67;82.94;100285.28;4920236;28;70321;-37
2023/09/03 11:19:13;;;;;;;8.98;8.25;;;;;;;30.65;83.15;100293.66;4916782;28;65481;-39
2023/09/03 11:21:43;;;;;;;8.45;7.50;;;;;;;30.69;83.42;100300.25;4918733;28;70290;-34
2023/09/03 11:24:17;;;;;;;11.23;7.68;;;;;;;30.70;83.25;100296.50;4935512;28;65292;-37
2023/09/03 11:27:04;;;;;;;11.57;8.00;;;;;;;30.63;83.39;100306.59;4902993;28;70407;-37
2023/09/03 11:29:36;;;;;;;10.00;7.38;;;;;;;30.67;82.94;100290.69;4926073;28;66000;-36
2023/09/03 11:32:06;;;;;;;12.20;6.93;;;;;;;30.69;83.41;100302.13;4924312;28;69634;-39
2023/09/03 11:34:36;;;;;;;9.98;7.45;;;;;;;30.66;82.88;100299.88;4920956;28;66848;-37
2023/09/03 11:37:06;;;;;;;8.85;7.63;;;;;;;30.76;82.59;100310.13;4926270;28;70106;-37
2023/09/03 11:39:37;;;;;;;17.88;8.80;;;;;;;30.76;83.52;100315.53;4921067;28;66257;-38